createdAt,value
2022-09-04T00:01:50.371Z,10.98
2022-09-04T00:07:02.412Z,12.45
2022-09-04T00:12:09.787Z,10.15
2022-09-04T00:17:19.608Z,10.75
2022-09-04T00:22:30.660Z,8.50
2022-09-04T00:27:44.322Z,9.43
2022-09-04T00:32:55.825Z,11.20
2022-09-04T00:38:05.257Z,11.57
2022-09-04T00:43:38.336Z,8.70
2022-09-04T00:49:11.441Z,12.93
2022-09-04T00:54:39.481Z,10.57
2022-09-04T01:00:06.417Z,10.52
2022-09-04T01:05:18.691Z,9.75
2022-09-04T01:10:36.586Z,9.30
2022-09-04T01:15:46.233Z,8.68
2022-09-04T01:20:59.487Z,9.45
2022-09-04T01:26:10.037Z,8.95
2022-09-04T01:31:25.555Z,11.27
2022-09-04T01:36:38.079Z,9.10
2022-09-04T01:41:47.430Z,11.48
2022-09-04T01:47:03.734Z,9.88
2022-09-04T01:52:37.809Z,10.13
2022-09-04T01:57:55.853Z,11.18
2022-09-04T02:03:08.371Z,9.95
2022-09-04T02:08:27.031Z,10.20
2022-09-04T02:13:45.048Z,8.95
2022-09-04T02:19:00.635Z,11.43
2022-09-04T02:24:11.229Z,12.32
2022-09-04T02:29:25.349Z,11.93
2022-09-04T02:34:38.909Z,9.48
2022-09-04T02:40:00.996Z,6.88
2022-09-04T02:45:17.820Z,9.35
2022-09-04T02:50:33.835Z,9.73
2022-09-04T02:55:53.717Z,10.38
2022-09-04T03:01:06.361Z,9.38
2022-09-04T03:06:13.522Z,8.95
2022-09-04T03:11:20.401Z,13.05
2022-09-04T03:16:30.448Z,8.55
2022-09-04T03:21:40.638Z,9.98
2022-09-04T03:26:48.211Z,9.40
2022-09-04T03:32:04.335Z,9.60
2022-09-04T03:37:31.685Z,10.55
2022-09-04T03:42:47.130Z,13.85
2022-09-04T03:48:10.211Z,10.60
2022-09-04T03:53:23.214Z,10.57
2022-09-04T03:58:38.245Z,10.35
2022-09-04T04:03:56.879Z,11.32
2022-09-04T04:09:36.915Z,8.45
2022-09-04T04:14:57.144Z,9.50
2022-09-04T04:20:11.908Z,10.05
2022-09-04T04:25:52.288Z,13.27
2022-09-04T04:31:05.688Z,11.43
2022-09-04T04:36:19.984Z,9.95
2022-09-04T04:42:02.597Z,8.80
2022-09-04T04:47:15.721Z,8.82
2022-09-04T04:52:35.896Z,12.93
2022-09-04T04:57:54.378Z,9.30
2022-09-04T05:03:09.146Z,10.10
2022-09-04T05:08:25.513Z,9.38
2022-09-04T05:13:40.410Z,9.75
2022-09-04T05:18:50.857Z,12.18
2022-09-04T05:24:03.467Z,10.05
2022-09-04T05:29:14.453Z,9.45
2022-09-04T05:34:27.099Z,9.70
2022-09-04T05:39:39.204Z,8.90
2022-09-04T05:44:55.681Z,9.97
2022-09-04T05:50:34.122Z,9.98
2022-09-04T05:56:07.645Z,9.10
2022-09-04T06:01:23.719Z,8.23
2022-09-04T06:06:37.687Z,8.30
2022-09-04T06:12:05.031Z,8.02
2022-09-04T06:17:22.642Z,8.95
2022-09-04T06:22:54.982Z,11.60
2022-09-04T06:28:18.837Z,10.10
2022-09-04T06:33:40.439Z,9.20
2022-09-04T06:38:56.813Z,14.10
2022-09-04T06:44:10.761Z,11.32
2022-09-04T06:49:19.079Z,11.80
2022-09-04T06:54:37.839Z,12.10
2022-09-04T07:00:11.729Z,9.88
2022-09-04T07:05:23.311Z,9.02
2022-09-04T07:10:32.819Z,11.43
2022-09-04T07:16:02.386Z,9.35
2022-09-04T07:21:17.426Z,9.45
2022-09-04T07:26:28.371Z,8.23
2022-09-04T07:31:39.803Z,7.32
2022-09-04T07:36:51.300Z,13.00
2022-09-04T07:42:02.519Z,9.60
2022-09-04T07:47:14.361Z,8.18
2022-09-04T07:52:29.781Z,9.95
2022-09-04T07:58:07.886Z,7.90
2022-09-04T08:03:30.229Z,9.98
2022-09-04T08:09:20.057Z,9.82
2022-09-04T08:14:53.174Z,9.50
2022-09-04T08:20:05.934Z,9.10
2022-09-04T08:25:21.098Z,11.10
2022-09-04T08:30:24.424Z,9.25
2022-09-04T08:35:34.841Z,8.80
2022-09-04T08:41:22.493Z,7.22
2022-09-04T08:46:49.390Z,9.27
2022-09-04T08:52:27.274Z,7.80
2022-09-04T08:57:58.549Z,6.63
2022-09-04T09:03:37.851Z,8.15
2022-09-04T09:09:23.429Z,7.93
2022-09-04T09:15:04.624Z,7.57
2022-09-04T09:20:26.741Z,6.43
2022-09-04T09:25:44.241Z,6.70
2022-09-04T09:31:12.300Z,7.95
2022-09-04T09:36:48.515Z,7.82
2022-09-04T09:42:17.200Z,7.43
2022-09-04T09:47:46.693Z,8.20
2022-09-04T09:53:25.376Z,7.35
2022-09-04T09:58:50.319Z,6.47
2022-09-04T10:04:28.691Z,9.57
2022-09-04T10:15:55.376Z,7.10
2022-09-04T10:21:27.879Z,7.22
2022-09-04T10:26:56.583Z,6.63
2022-09-04T10:32:20.003Z,8.43
2022-09-04T10:37:38.809Z,6.32
2022-09-04T10:42:53.248Z,6.43
2022-09-04T10:48:20.097Z,5.78
2022-09-04T10:53:48.016Z,6.18
2022-09-04T10:59:21.254Z,6.10
2022-09-04T11:05:09.929Z,5.70
2022-09-04T11:10:38.146Z,5.22
2022-09-04T11:16:09.482Z,5.47
2022-09-04T11:22:08.750Z,5.07
2022-09-04T11:27:54.958Z,5.32
2022-09-04T11:33:30.331Z,6.88
2022-09-04T11:38:57.634Z,4.88
2022-09-04T11:44:33.123Z,4.47
2022-09-04T11:49:52.917Z,3.92
2022-09-04T11:55:42.207Z,4.22
2022-09-04T12:00:59.344Z,4.30
2022-09-04T12:06:18.739Z,4.75
2022-09-04T12:12:11.123Z,5.20
2022-09-04T12:17:48.378Z,4.47
2022-09-04T12:23:31.510Z,6.15
2022-09-04T12:29:07.497Z,5.07
2022-09-04T12:34:49.483Z,5.03
2022-09-04T12:40:29.299Z,3.40
2022-09-04T12:45:42.493Z,3.60
2022-09-04T12:50:54.679Z,5.72
2022-09-04T13:01:15.372Z,3.83
2022-09-04T13:06:30.625Z,3.25
2022-09-04T13:11:43.513Z,2.42
2022-09-04T13:16:55.062Z,4.15
2022-09-04T13:22:15.813Z,2.53
2022-09-04T13:27:34.239Z,4.80
2022-09-04T13:32:51.616Z,4.22
2022-09-04T13:38:24.304Z,3.10
2022-09-04T13:43:46.614Z,2.40
2022-09-04T13:48:55.262Z,3.47
2022-09-04T13:54:07.726Z,3.22
2022-09-04T13:59:16.365Z,3.10
2022-09-04T14:04:26.440Z,3.85
2022-09-04T14:09:37.425Z,2.75
2022-09-04T14:15:13.662Z,4.90
2022-09-04T14:20:22.724Z,2.65
2022-09-04T14:25:34.449Z,2.92
2022-09-04T14:30:45.707Z,2.50
2022-09-04T14:36:03.166Z,3.05
2022-09-04T14:41:18.367Z,4.15
2022-09-04T14:46:31.274Z,3.40
2022-09-04T14:51:38.525Z,3.10
2022-09-04T14:56:48.044Z,2.80
2022-09-04T15:02:18.332Z,2.15
2022-09-04T15:07:32.737Z,3.85
2022-09-04T15:12:41.515Z,2.17
2022-09-04T15:17:51.545Z,2.92
2022-09-04T15:22:58.318Z,4.32
2022-09-04T15:28:07.037Z,2.78
2022-09-04T15:33:12.969Z,2.35
2022-09-04T15:38:20.684Z,2.72
2022-09-04T15:43:29.638Z,2.60
2022-09-04T15:48:47.464Z,2.08
2022-09-04T15:54:13.261Z,3.30
2022-09-04T15:59:21.233Z,2.08
2022-09-04T16:04:30.469Z,3.28
2022-09-04T16:09:39.974Z,3.63
2022-09-04T16:14:49.413Z,2.35
2022-09-04T16:19:59.387Z,2.30
2022-09-04T16:25:11.848Z,6.30
2022-09-04T16:30:33.058Z,3.20
2022-09-04T16:35:42.516Z,3.53
2022-09-04T16:40:55.952Z,4.35
2022-09-04T16:46:12.699Z,3.47
2022-09-04T16:51:39.224Z,9.32
2022-09-04T16:56:50.185Z,3.85
2022-09-04T17:02:01.655Z,3.55
2022-09-04T17:07:15.796Z,4.45
2022-09-04T17:12:43.217Z,6.38
2022-09-04T17:17:48.483Z,4.40
2022-09-04T17:29:04.760Z,4.70
2022-09-04T17:29:14.172Z,4.68
2022-09-04T17:40:08.926Z,7.05
2022-09-04T17:40:48.031Z,3.60
2022-09-04T17:45:11.590Z,5.45
2022-09-04T17:50:19.181Z,4.00
2022-09-04T17:55:23.225Z,5.82
2022-09-04T18:00:32.855Z,3.53
2022-09-04T18:05:53.361Z,3.50
2022-09-04T18:11:03.004Z,2.72
2022-09-04T18:16:15.211Z,3.83
2022-09-04T18:21:24.703Z,4.15
2022-09-04T18:26:41.191Z,4.10
2022-09-04T18:37:10.952Z,6.72
2022-09-04T18:37:44.626Z,3.87
2022-09-04T18:50:29.962Z,5.10
2022-09-04T18:50:46.485Z,5.68
2022-09-04T18:53:50.892Z,4.88
2022-09-04T18:59:00.460Z,5.47
2022-09-04T19:04:32.129Z,7.05
2022-09-04T19:09:56.477Z,5.88
2022-09-04T19:15:01.152Z,5.13
2022-09-04T19:20:10.579Z,6.05
2022-09-04T19:25:20.814Z,6.30
2022-09-04T19:30:27.465Z,5.00
2022-09-04T19:35:38.342Z,5.78
2022-09-04T19:46:06.405Z,5.80
2022-09-04T19:46:37.163Z,9.52
2022-09-04T19:53:30.487Z,5.82
2022-09-04T19:57:32.325Z,4.28
2022-09-04T20:02:48.011Z,6.85
2022-09-04T20:07:56.886Z,5.80
2022-09-04T20:13:16.741Z,5.97
2022-09-04T20:18:24.257Z,5.50
2022-09-04T20:23:34.892Z,10.88
2022-09-04T20:28:54.178Z,7.85
2022-09-04T20:34:03.505Z,5.72
2022-09-04T20:39:19.527Z,7.00
2022-09-04T20:44:31.872Z,5.10
2022-09-04T20:52:51.289Z,4.70
2022-09-04T20:55:24.977Z,7.75
2022-09-04T21:03:14.705Z,10.35
2022-09-04T21:06:27.171Z,7.07
2022-09-04T21:11:41.704Z,4.78
2022-09-04T21:17:35.026Z,5.50
2022-09-04T21:22:54.207Z,7.70
2022-09-04T21:28:39.167Z,5.00
2022-09-04T21:33:56.610Z,4.85
2022-09-04T21:39:32.974Z,5.65
2022-09-04T21:45:02.048Z,5.82
2022-09-04T21:50:35.295Z,4.88
2022-09-04T22:02:30.592Z,6.85
2022-09-04T22:02:45.890Z,5.97
2022-09-04T22:12:16.914Z,7.88
2022-09-04T22:13:38.392Z,6.80
2022-09-04T22:18:43.129Z,10.27
2022-09-04T22:24:32.239Z,6.32
2022-09-04T22:29:51.440Z,7.88
2022-09-04T22:35:35.918Z,5.60
2022-09-04T22:40:57.039Z,7.22
2022-09-04T22:46:27.252Z,7.78
2022-09-04T22:51:49.236Z,5.55
2022-09-04T22:56:56.258Z,5.43
2022-09-04T23:02:39.912Z,7.82
2022-09-04T23:13:42.211Z,8.88
2022-09-04T23:14:06.555Z,7.03
2022-09-04T23:23:35.022Z,10.95
2022-09-04T23:26:50.363Z,7.30
2022-09-04T23:30:49.626Z,7.78
2022-09-04T23:36:09.282Z,5.78
2022-09-04T23:41:53.345Z,8.18
2022-09-04T23:47:47.808Z,6.85
2022-09-04T23:53:25.981Z,6.72
2022-09-04T23:59:21.173Z,6.80
